sensor_id;sensor_type;location;lat;lon;timestamp;P1;durP1;ratioP1;P2;durP2;ratioP2
62289;SDS011;48284;46.828;29.480;2022-08-23T11:13:51;17.08;;;5.82;;
62289;SDS011;48284;46.828;29.480;2022-08-23T11:16:21;18.17;;;5.60;;
62289;SDS011;48284;46.828;29.480;2022-08-23T11:18:56;19.75;;;5.63;;
62289;SDS011;48284;46.828;29.480;2022-08-23T11:21:40;16.30;;;5.22;;
62289;SDS011;48284;46.828;29.480;2022-08-23T11:27:28;16.95;;;4.72;;
62289;SDS011;48284;46.828;29.480;2022-08-23T11:33:14;16.02;;;4.53;;
62289;SDS011;48284;46.828;29.480;2022-08-23T11:35:49;14.95;;;5.05;;
62289;SDS011;48284;46.828;29.480;2022-08-23T11:41:27;15.25;;;4.55;;
62289;SDS011;48284;46.828;29.480;2022-08-23T11:46:59;10.18;;;4.10;;
62289;SDS011;48284;46.828;29.480;2022-08-23T11:52:52;10.18;;;4.43;;
62289;SDS011;48284;46.828;29.480;2022-08-23T11:55:53;16.45;;;4.65;;
62289;SDS011;48284;46.828;29.480;2022-08-23T11:58:42;14.05;;;4.35;;
62289;SDS011;48284;46.828;29.480;2022-08-23T12:01:29;12.30;;;4.13;;
62289;SDS011;48284;46.828;29.480;2022-08-23T12:04:00;11.77;;;4.55;;
62289;SDS011;48284;46.828;29.480;2022-08-23T12:06:40;16.58;;;4.05;;
62289;SDS011;48284;46.828;29.480;2022-08-23T12:12:28;20.98;;;4.55;;
62289;SDS011;48284;46.828;29.480;2022-08-23T12:15:07;13.15;;;4.00;;
62289;SDS011;48284;46.828;29.480;2022-08-23T12:17:54;10.43;;;3.65;;
62289;SDS011;48284;46.828;29.480;2022-08-23T12:20:40;16.52;;;3.88;;
62289;SDS011;48284;46.828;29.480;2022-08-23T12:23:19;18.52;;;4.47;;
62289;SDS011;48284;46.828;29.480;2022-08-23T12:25:59;14.50;;;3.72;;
62289;SDS011;48284;46.828;29.480;2022-08-23T12:28:35;19.17;;;4.20;;
62289;SDS011;48284;46.828;29.480;2022-08-23T12:31:12;12.52;;;3.78;;
62289;SDS011;48284;46.828;29.480;2022-08-23T12:33:51;13.05;;;4.15;;
62289;SDS011;48284;46.828;29.480;2022-08-23T12:36:32;14.05;;;4.15;;
62289;SDS011;48284;46.828;29.480;2022-08-23T12:39:07;18.20;;;3.97;;
62289;SDS011;48284;46.828;29.480;2022-08-23T12:41:51;9.73;;;3.67;;
62289;SDS011;48284;46.828;29.480;2022-08-23T12:44:23;12.85;;;3.50;;
62289;SDS011;48284;46.828;29.480;2022-08-23T12:46:54;15.88;;;3.63;;
62289;SDS011;48284;46.828;29.480;2022-08-23T12:49:24;12.63;;;3.78;;
62289;SDS011;48284;46.828;29.480;2022-08-23T12:51:56;12.20;;;3.78;;
62289;SDS011;48284;46.828;29.480;2022-08-23T12:54:35;11.18;;;3.53;;
62289;SDS011;48284;46.828;29.480;2022-08-23T12:57:05;14.30;;;3.95;;
62289;SDS011;48284;46.828;29.480;2022-08-23T12:59:39;13.18;;;3.55;;
62289;SDS011;48284;46.828;29.480;2022-08-23T13:02:11;14.05;;;4.20;;
62289;SDS011;48284;46.828;29.480;2022-08-23T13:04:45;13.30;;;4.15;;
62289;SDS011;48284;46.828;29.480;2022-08-23T13:07:14;11.63;;;3.90;;
62289;SDS011;48284;46.828;29.480;2022-08-23T13:09:49;14.85;;;3.67;;
62289;SDS011;48284;46.828;29.480;2022-08-23T13:12:21;15.38;;;4.35;;
62289;SDS011;48284;46.828;29.480;2022-08-23T13:14:51;16.10;;;3.70;;
62289;SDS011;48284;46.828;29.480;2022-08-23T13:17:33;15.52;;;4.22;;
62289;SDS011;48284;46.828;29.480;2022-08-23T13:20:15;17.60;;;3.95;;
62289;SDS011;48284;46.828;29.480;2022-08-23T13:22:54;16.17;;;3.97;;
62289;SDS011;48284;46.828;29.480;2022-08-23T13:25:50;17.58;;;4.15;;
62289;SDS011;48284;46.828;29.480;2022-08-23T13:28:20;16.95;;;4.20;;
62289;SDS011;48284;46.828;29.480;2022-08-23T13:31:03;14.55;;;3.60;;
62289;SDS011;48284;46.828;29.480;2022-08-23T13:33:34;17.98;;;4.35;;
62289;SDS011;48284;46.828;29.480;2022-08-23T13:36:07;16.10;;;3.63;;
62289;SDS011;48284;46.828;29.480;2022-08-23T13:39:03;16.30;;;4.10;;
62289;SDS011;48284;46.828;29.480;2022-08-23T13:41:35;20.08;;;4.00;;
62289;SDS011;48284;46.828;29.480;2022-08-23T13:44:05;15.55;;;3.75;;
62289;SDS011;48284;46.828;29.480;2022-08-23T13:46:34;17.65;;;4.03;;
62289;SDS011;48284;46.828;29.480;2022-08-23T13:49:12;17.00;;;4.20;;
62289;SDS011;48284;46.828;29.480;2022-08-23T13:52:01;21.30;;;4.45;;
62289;SDS011;48284;46.828;29.480;2022-08-23T13:54:53;14.88;;;3.78;;
62289;SDS011;48284;46.828;29.480;2022-08-23T13:57:23;27.92;;;4.20;;
62289;SDS011;48284;46.828;29.480;2022-08-23T13:59:55;14.23;;;3.47;;
62289;SDS011;48284;46.828;29.480;2022-08-23T14:02:25;18.25;;;3.80;;
62289;SDS011;48284;46.828;29.480;2022-08-23T14:04:55;15.10;;;3.55;;
62289;SDS011;48284;46.828;29.480;2022-08-23T14:07:23;18.77;;;4.53;;
62289;SDS011;48284;46.828;29.480;2022-08-23T14:09:52;18.73;;;4.00;;
62289;SDS011;48284;46.828;29.480;2022-08-23T14:12:25;18.75;;;4.30;;
62289;SDS011;48284;46.828;29.480;2022-08-23T14:14:56;22.52;;;4.43;;
62289;SDS011;48284;46.828;29.480;2022-08-23T14:17:26;24.45;;;4.93;;
62289;SDS011;48284;46.828;29.480;2022-08-23T14:19:56;22.60;;;4.13;;
62289;SDS011;48284;46.828;29.480;2022-08-23T14:22:44;22.17;;;4.68;;
62289;SDS011;48284;46.828;29.480;2022-08-23T14:25:13;21.20;;;5.30;;
62289;SDS011;48284;46.828;29.480;2022-08-23T14:30:20;25.73;;;5.30;;
62289;SDS011;48284;46.828;29.480;2022-08-23T14:32:55;27.20;;;4.47;;
62289;SDS011;48284;46.828;29.480;2022-08-23T14:35:24;24.33;;;5.32;;
62289;SDS011;48284;46.828;29.480;2022-08-23T14:37:53;27.83;;;4.38;;
62289;SDS011;48284;46.828;29.480;2022-08-23T14:40:31;34.75;;;4.75;;
62289;SDS011;48284;46.828;29.480;2022-08-23T14:43:01;23.83;;;4.05;;
62289;SDS011;48284;46.828;29.480;2022-08-23T14:45:31;26.20;;;4.70;;
62289;SDS011;48284;46.828;29.480;2022-08-23T14:48:00;24.55;;;5.15;;
62289;SDS011;48284;46.828;29.480;2022-08-23T14:50:29;26.23;;;5.10;;
62289;SDS011;48284;46.828;29.480;2022-08-23T14:52:57;31.30;;;4.70;;
62289;SDS011;48284;46.828;29.480;2022-08-23T14:55:29;39.03;;;5.35;;
62289;SDS011;48284;46.828;29.480;2022-08-23T14:57:58;47.80;;;7.25;;
62289;SDS011;48284;46.828;29.480;2022-08-23T15:00:28;59.75;;;7.40;;
62289;SDS011;48284;46.828;29.480;2022-08-23T15:02:56;55.92;;;7.82;;
62289;SDS011;48284;46.828;29.480;2022-08-23T15:05:25;58.70;;;7.20;;
62289;SDS011;48284;46.828;29.480;2022-08-23T15:07:54;57.80;;;7.28;;
62289;SDS011;48284;46.828;29.480;2022-08-23T15:10:23;61.08;;;9.25;;
62289;SDS011;48284;46.828;29.480;2022-08-23T15:13:11;60.50;;;8.55;;
62289;SDS011;48284;46.828;29.480;2022-08-23T15:15:54;59.25;;;8.70;;
62289;SDS011;48284;46.828;29.480;2022-08-23T15:18:23;53.95;;;9.05;;
62289;SDS011;48284;46.828;29.480;2022-08-23T15:20:53;53.20;;;7.63;;
62289;SDS011;48284;46.828;29.480;2022-08-23T15:23:22;60.10;;;8.98;;
62289;SDS011;48284;46.828;29.480;2022-08-23T15:25:51;54.55;;;8.40;;
62289;SDS011;48284;46.828;29.480;2022-08-23T15:28:20;59.08;;;8.18;;
62289;SDS011;48284;46.828;29.480;2022-08-23T15:30:50;60.55;;;8.75;;
62289;SDS011;48284;46.828;29.480;2022-08-23T15:35:53;59.25;;;9.75;;
62289;SDS011;48284;46.828;29.480;2022-08-23T15:38:23;69.95;;;10.10;;
62289;SDS011;48284;46.828;29.480;2022-08-23T15:40:52;71.18;;;8.90;;
62289;SDS011;48284;46.828;29.480;2022-08-23T15:43:22;68.50;;;8.75;;
62289;SDS011;48284;46.828;29.480;2022-08-23T15:46:04;68.15;;;8.63;;
62289;SDS011;48284;46.828;29.480;2022-08-23T15:48:36;66.00;;;8.88;;
62289;SDS011;48284;46.828;29.480;2022-08-23T15:51:10;72.25;;;8.52;;
62289;SDS011;48284;46.828;29.480;2022-08-23T15:56:08;69.30;;;9.15;;
62289;SDS011;48284;46.828;29.480;2022-08-23T15:58:40;67.28;;;9.60;;
62289;SDS011;48284;46.828;29.480;2022-08-23T16:01:09;74.05;;;8.63;;
62289;SDS011;48284;46.828;29.480;2022-08-23T16:03:40;70.97;;;9.88;;
62289;SDS011;48284;46.828;29.480;2022-08-23T16:06:10;76.70;;;8.23;;
62289;SDS011;48284;46.828;29.480;2022-08-23T16:08:40;75.10;;;9.82;;
62289;SDS011;48284;46.828;29.480;2022-08-23T16:11:12;64.07;;;9.93;;
62289;SDS011;48284;46.828;29.480;2022-08-23T16:13:41;74.22;;;9.27;;
62289;SDS011;48284;46.828;29.480;2022-08-23T16:16:13;75.85;;;9.00;;
62289;SDS011;48284;46.828;29.480;2022-08-23T16:18:47;70.90;;;9.02;;
62289;SDS011;48284;46.828;29.480;2022-08-23T16:21:17;80.50;;;11.32;;
62289;SDS011;48284;46.828;29.480;2022-08-23T16:23:46;64.47;;;10.05;;
62289;SDS011;48284;46.828;29.480;2022-08-23T16:26:16;62.67;;;10.10;;
62289;SDS011;48284;46.828;29.480;2022-08-23T16:28:57;81.35;;;9.85;;
62289;SDS011;48284;46.828;29.480;2022-08-23T16:31:26;72.53;;;9.07;;
62289;SDS011;48284;46.828;29.480;2022-08-23T16:34:07;90.72;;;11.35;;
62289;SDS011;48284;46.828;29.480;2022-08-23T16:36:39;65.50;;;8.25;;
62289;SDS011;48284;46.828;29.480;2022-08-23T16:39:12;71.80;;;9.55;;
62289;SDS011;48284;46.828;29.480;2022-08-23T16:41:42;65.15;;;9.35;;
62289;SDS011;48284;46.828;29.480;2022-08-23T16:44:11;64.70;;;8.82;;
62289;SDS011;48284;46.828;29.480;2022-08-23T16:46:40;69.38;;;10.88;;
62289;SDS011;48284;46.828;29.480;2022-08-23T16:49:12;67.60;;;10.68;;
62289;SDS011;48284;46.828;29.480;2022-08-23T16:51:44;68.43;;;9.80;;
62289;SDS011;48284;46.828;29.480;2022-08-23T16:54:13;60.00;;;11.25;;
62289;SDS011;48284;46.828;29.480;2022-08-23T16:56:44;62.33;;;8.65;;
62289;SDS011;48284;46.828;29.480;2022-08-23T16:59:13;62.78;;;8.88;;
62289;SDS011;48284;46.828;29.480;2022-08-23T17:01:42;56.03;;;8.93;;
62289;SDS011;48284;46.828;29.480;2022-08-23T17:04:16;55.28;;;9.02;;
62289;SDS011;48284;46.828;29.480;2022-08-23T17:06:45;62.15;;;8.48;;
62289;SDS011;48284;46.828;29.480;2022-08-23T17:09:14;51.83;;;8.95;;
62289;SDS011;48284;46.828;29.480;2022-08-23T17:11:43;48.72;;;7.13;;
62289;SDS011;48284;46.828;29.480;2022-08-23T17:14:12;49.35;;;7.72;;
62289;SDS011;48284;46.828;29.480;2022-08-23T17:19:11;50.53;;;7.93;;
62289;SDS011;48284;46.828;29.480;2022-08-23T17:21:42;63.70;;;7.30;;
62289;SDS011;48284;46.828;29.480;2022-08-23T17:24:11;52.00;;;7.22;;
62289;SDS011;48284;46.828;29.480;2022-08-23T17:26:39;52.22;;;6.95;;
62289;SDS011;48284;46.828;29.480;2022-08-23T17:31:38;42.63;;;6.90;;
62289;SDS011;48284;46.828;29.480;2022-08-23T17:34:06;37.05;;;6.75;;
62289;SDS011;48284;46.828;29.480;2022-08-23T17:36:36;48.15;;;7.53;;
62289;SDS011;48284;46.828;29.480;2022-08-23T17:39:09;39.95;;;7.03;;
62289;SDS011;48284;46.828;29.480;2022-08-23T17:41:40;50.58;;;6.57;;
62289;SDS011;48284;46.828;29.480;2022-08-23T17:44:11;44.85;;;7.00;;
62289;SDS011;48284;46.828;29.480;2022-08-23T17:46:41;40.63;;;5.72;;
62289;SDS011;48284;46.828;29.480;2022-08-23T17:49:12;48.15;;;7.07;;
62289;SDS011;48284;46.828;29.480;2022-08-23T17:51:42;49.40;;;7.30;;
62289;SDS011;48284;46.828;29.480;2022-08-23T17:54:12;41.88;;;7.10;;
62289;SDS011;48284;46.828;29.480;2022-08-23T17:56:42;46.95;;;6.88;;
62289;SDS011;48284;46.828;29.480;2022-08-23T17:59:16;41.80;;;7.47;;
62289;SDS011;48284;46.828;29.480;2022-08-23T18:01:45;42.85;;;6.55;;
62289;SDS011;48284;46.828;29.480;2022-08-23T18:04:14;44.47;;;7.40;;
62289;SDS011;48284;46.828;29.480;2022-08-23T18:06:42;40.05;;;6.90;;
62289;SDS011;48284;46.828;29.480;2022-08-23T18:09:13;49.50;;;7.05;;
62289;SDS011;48284;46.828;29.480;2022-08-23T18:11:42;60.25;;;9.18;;
62289;SDS011;48284;46.828;29.480;2022-08-23T18:14:11;55.80;;;6.35;;
62289;SDS011;48284;46.828;29.480;2022-08-23T18:16:39;43.50;;;6.70;;
62289;SDS011;48284;46.828;29.480;2022-08-23T18:19:11;43.45;;;6.78;;
62289;SDS011;48284;46.828;29.480;2022-08-23T18:21:40;36.85;;;5.95;;
62289;SDS011;48284;46.828;29.480;2022-08-23T18:24:10;53.60;;;7.38;;
62289;SDS011;48284;46.828;29.480;2022-08-23T18:26:41;47.40;;;7.63;;
62289;SDS011;48284;46.828;29.480;2022-08-23T18:29:30;41.83;;;7.15;;
62289;SDS011;48284;46.828;29.480;2022-08-23T18:32:00;41.47;;;7.38;;
62289;SDS011;48284;46.828;29.480;2022-08-23T18:36:57;45.58;;;7.07;;
62289;SDS011;48284;46.828;29.480;2022-08-23T18:39:26;45.58;;;7.45;;
62289;SDS011;48284;46.828;29.480;2022-08-23T18:41:59;38.10;;;7.03;;
62289;SDS011;48284;46.828;29.480;2022-08-23T18:44:29;37.67;;;7.53;;
62289;SDS011;48284;46.828;29.480;2022-08-23T18:46:58;44.10;;;7.85;;
62289;SDS011;48284;46.828;29.480;2022-08-23T18:49:29;43.63;;;7.53;;
62289;SDS011;48284;46.828;29.480;2022-08-23T18:51:59;40.92;;;6.75;;
62289;SDS011;48284;46.828;29.480;2022-08-23T18:54:28;54.40;;;7.80;;
62289;SDS011;48284;46.828;29.480;2022-08-23T18:57:01;42.97;;;7.70;;
62289;SDS011;48284;46.828;29.480;2022-08-23T18:59:30;49.28;;;8.73;;
62289;SDS011;48284;46.828;29.480;2022-08-23T19:01:59;42.35;;;7.15;;
62289;SDS011;48284;46.828;29.480;2022-08-23T19:04:28;43.20;;;7.10;;
62289;SDS011;48284;46.828;29.480;2022-08-23T19:06:57;45.42;;;7.75;;
62289;SDS011;48284;46.828;29.480;2022-08-23T19:09:25;46.13;;;6.85;;
62289;SDS011;48284;46.828;29.480;2022-08-23T19:11:54;34.13;;;6.88;;
62289;SDS011;48284;46.828;29.480;2022-08-23T19:14:27;47.28;;;7.57;;
62289;SDS011;48284;46.828;29.480;2022-08-23T19:16:59;31.42;;;6.82;;
62289;SDS011;48284;46.828;29.480;2022-08-23T19:19:29;36.90;;;7.00;;
62289;SDS011;48284;46.828;29.480;2022-08-23T19:22:00;47.13;;;7.63;;
62289;SDS011;48284;46.828;29.480;2022-08-23T19:24:29;33.15;;;7.45;;
62289;SDS011;48284;46.828;29.480;2022-08-23T19:29:29;41.53;;;7.00;;
62289;SDS011;48284;46.828;29.480;2022-08-23T19:31:59;41.53;;;6.70;;
62289;SDS011;48284;46.828;29.480;2022-08-23T19:34:28;28.38;;;5.95;;
62289;SDS011;48284;46.828;29.480;2022-08-23T19:36:57;37.58;;;6.00;;
62289;SDS011;48284;46.828;29.480;2022-08-23T19:39:27;33.90;;;6.03;;
62289;SDS011;48284;46.828;29.480;2022-08-23T19:41:57;29.88;;;5.50;;
62289;SDS011;48284;46.828;29.480;2022-08-23T19:44:25;27.17;;;6.43;;
62289;SDS011;48284;46.828;29.480;2022-08-23T19:46:58;40.00;;;6.30;;
62289;SDS011;48284;46.828;29.480;2022-08-23T19:49:27;28.38;;;5.78;;
62289;SDS011;48284;46.828;29.480;2022-08-23T19:51:56;30.08;;;6.28;;
62289;SDS011;48284;46.828;29.480;2022-08-23T19:54:25;32.13;;;6.22;;
62289;SDS011;48284;46.828;29.480;2022-08-23T19:56:56;29.00;;;5.45;;
62289;SDS011;48284;46.828;29.480;2022-08-23T19:59:27;29.50;;;5.47;;
62289;SDS011;48284;46.828;29.480;2022-08-23T20:01:58;30.98;;;6.00;;
62289;SDS011;48284;46.828;29.480;2022-08-23T20:04:28;29.27;;;4.78;;
62289;SDS011;48284;46.828;29.480;2022-08-23T20:06:59;31.88;;;5.30;;
62289;SDS011;48284;46.828;29.480;2022-08-23T20:09:28;35.15;;;5.63;;
62289;SDS011;48284;46.828;29.480;2022-08-23T20:11:58;20.35;;;4.55;;
62289;SDS011;48284;46.828;29.480;2022-08-23T20:14:27;23.30;;;5.05;;
62289;SDS011;48284;46.828;29.480;2022-08-23T20:17:00;29.23;;;5.55;;
62289;SDS011;48284;46.828;29.480;2022-08-23T20:19:32;29.98;;;5.85;;
62289;SDS011;48284;46.828;29.480;2022-08-23T20:22:02;35.58;;;5.68;;
62289;SDS011;48284;46.828;29.480;2022-08-23T20:24:48;27.00;;;5.10;;
62289;SDS011;48284;46.828;29.480;2022-08-23T20:27:19;34.10;;;5.07;;
62289;SDS011;48284;46.828;29.480;2022-08-23T20:29:57;29.65;;;5.60;;
62289;SDS011;48284;46.828;29.480;2022-08-23T20:32:27;39.08;;;5.45;;
62289;SDS011;48284;46.828;29.480;2022-08-23T20:34:57;23.08;;;4.47;;
62289;SDS011;48284;46.828;29.480;2022-08-23T20:37:31;28.77;;;5.53;;
62289;SDS011;48284;46.828;29.480;2022-08-23T20:40:00;23.30;;;4.25;;
62289;SDS011;48284;46.828;29.480;2022-08-23T20:42:29;26.83;;;4.25;;
62289;SDS011;48284;46.828;29.480;2022-08-23T20:44:57;31.02;;;4.95;;
62289;SDS011;48284;46.828;29.480;2022-08-23T20:47:27;22.38;;;4.15;;
62289;SDS011;48284;46.828;29.480;2022-08-23T20:50:16;29.50;;;5.90;;
62289;SDS011;48284;46.828;29.480;2022-08-23T20:55:13;47.53;;;7.57;;
62289;SDS011;48284;46.828;29.480;2022-08-23T20:57:42;41.08;;;6.30;;
62289;SDS011;48284;46.828;29.480;2022-08-23T21:00:11;31.25;;;7.00;;
62289;SDS011;48284;46.828;29.480;2022-08-23T21:02:41;19.77;;;6.20;;
62289;SDS011;48284;46.828;29.480;2022-08-23T21:05:10;28.88;;;6.32;;
62289;SDS011;48284;46.828;29.480;2022-08-23T21:07:39;28.73;;;6.90;;
62289;SDS011;48284;46.828;29.480;2022-08-23T21:10:07;30.40;;;7.82;;
62289;SDS011;48284;46.828;29.480;2022-08-23T21:12:36;24.10;;;6.38;;
62289;SDS011;48284;46.828;29.480;2022-08-23T21:15:06;27.85;;;6.53;;
62289;SDS011;48284;46.828;29.480;2022-08-23T21:17:36;29.50;;;6.68;;
62289;SDS011;48284;46.828;29.480;2022-08-23T21:20:07;28.17;;;6.38;;
62289;SDS011;48284;46.828;29.480;2022-08-23T21:22:36;27.38;;;6.90;;
62289;SDS011;48284;46.828;29.480;2022-08-23T21:25:04;21.40;;;6.47;;
62289;SDS011;48284;46.828;29.480;2022-08-23T21:27:33;30.52;;;6.45;;
62289;SDS011;48284;46.828;29.480;2022-08-23T21:30:02;30.67;;;6.03;;
62289;SDS011;48284;46.828;29.480;2022-08-23T21:32:32;23.48;;;5.40;;
62289;SDS011;48284;46.828;29.480;2022-08-23T21:35:00;24.00;;;6.00;;
62289;SDS011;48284;46.828;29.480;2022-08-23T21:37:30;24.98;;;6.20;;
62289;SDS011;48284;46.828;29.480;2022-08-23T21:40:01;30.48;;;6.32;;
62289;SDS011;48284;46.828;29.480;2022-08-23T21:44:58;22.25;;;5.47;;
62289;SDS011;48284;46.828;29.480;2022-08-23T21:47:51;30.27;;;5.90;;
62289;SDS011;48284;46.828;29.480;2022-08-23T21:50:20;26.35;;;5.53;;
62289;SDS011;48284;46.828;29.480;2022-08-23T21:52:55;33.88;;;6.10;;
62289;SDS011;48284;46.828;29.480;2022-08-23T21:55:24;29.30;;;5.60;;
62289;SDS011;48284;46.828;29.480;2022-08-23T21:58:02;25.95;;;5.38;;
62289;SDS011;48284;46.828;29.480;2022-08-23T22:00:31;34.65;;;5.63;;
62289;SDS011;48284;46.828;29.480;2022-08-23T22:03:00;35.47;;;5.93;;
62289;SDS011;48284;46.828;29.480;2022-08-23T22:05:29;36.30;;;5.65;;
62289;SDS011;48284;46.828;29.480;2022-08-23T22:07:59;22.70;;;5.03;;
62289;SDS011;48284;46.828;29.480;2022-08-23T22:10:28;22.73;;;4.70;;
62289;SDS011;48284;46.828;29.480;2022-08-23T22:12:56;22.40;;;4.63;;
62289;SDS011;48284;46.828;29.480;2022-08-23T22:15:25;21.75;;;4.68;;
62289;SDS011;48284;46.828;29.480;2022-08-23T22:17:53;23.33;;;5.18;;
62289;SDS011;48284;46.828;29.480;2022-08-23T22:20:40;31.65;;;5.38;;
62289;SDS011;48284;46.828;29.480;2022-08-23T22:23:10;27.83;;;4.72;;
62289;SDS011;48284;46.828;29.480;2022-08-23T22:25:38;31.98;;;5.10;;
62289;SDS011;48284;46.828;29.480;2022-08-23T22:28:07;25.08;;;5.53;;
62289;SDS011;48284;46.828;29.480;2022-08-23T22:30:36;24.52;;;5.05;;
62289;SDS011;48284;46.828;29.480;2022-08-23T22:33:04;30.13;;;5.47;;
62289;SDS011;48284;46.828;29.480;2022-08-23T22:35:33;39.40;;;5.57;;
62289;SDS011;48284;46.828;29.480;2022-08-23T22:38:02;23.70;;;5.03;;
62289;SDS011;48284;46.828;29.480;2022-08-23T22:40:46;25.48;;;4.68;;
62289;SDS011;48284;46.828;29.480;2022-08-23T22:43:16;35.13;;;5.00;;
62289;SDS011;48284;46.828;29.480;2022-08-23T22:45:48;29.77;;;4.95;;
62289;SDS011;48284;46.828;29.480;2022-08-23T22:48:17;22.63;;;4.53;;
62289;SDS011;48284;46.828;29.480;2022-08-23T22:50:47;28.80;;;4.80;;
62289;SDS011;48284;46.828;29.480;2022-08-23T22:53:17;32.95;;;5.55;;
62289;SDS011;48284;46.828;29.480;2022-08-23T22:55:49;24.27;;;4.35;;
62289;SDS011;48284;46.828;29.480;2022-08-23T22:58:18;22.38;;;4.47;;
62289;SDS011;48284;46.828;29.480;2022-08-23T23:00:47;21.40;;;4.75;;
62289;SDS011;48284;46.828;29.480;2022-08-23T23:03:15;28.92;;;5.28;;
62289;SDS011;48284;46.828;29.480;2022-08-23T23:05:44;27.02;;;4.28;;
62289;SDS011;48284;46.828;29.480;2022-08-23T23:08:13;23.85;;;4.57;;
62289;SDS011;48284;46.828;29.480;2022-08-23T23:10:56;24.42;;;4.63;;
62289;SDS011;48284;46.828;29.480;2022-08-23T23:13:27;21.95;;;4.00;;
62289;SDS011;48284;46.828;29.480;2022-08-23T23:15:57;27.10;;;4.45;;
62289;SDS011;48284;46.828;29.480;2022-08-23T23:18:30;30.30;;;4.47;;
62289;SDS011;48284;46.828;29.480;2022-08-23T23:21:00;35.28;;;5.55;;
62289;SDS011;48284;46.828;29.480;2022-08-23T23:23:30;28.27;;;4.78;;
62289;SDS011;48284;46.828;29.480;2022-08-23T23:26:01;23.00;;;4.40;;
62289;SDS011;48284;46.828;29.480;2022-08-23T23:28:33;14.98;;;3.75;;
62289;SDS011;48284;46.828;29.480;2022-08-23T23:31:02;27.58;;;3.92;;
62289;SDS011;48284;46.828;29.480;2022-08-23T23:33:31;27.30;;;5.07;;
62289;SDS011;48284;46.828;29.480;2022-08-23T23:36:00;34.55;;;5.43;;
62289;SDS011;48284;46.828;29.480;2022-08-23T23:40:57;19.75;;;4.32;;
62289;SDS011;48284;46.828;29.480;2022-08-23T23:43:27;22.50;;;4.00;;
62289;SDS011;48284;46.828;29.480;2022-08-23T23:45:56;19.95;;;4.82;;
62289;SDS011;48284;46.828;29.480;2022-08-23T23:48:24;28.80;;;5.15;;
62289;SDS011;48284;46.828;29.480;2022-08-23T23:50:53;26.08;;;4.07;;
62289;SDS011;48284;46.828;29.480;2022-08-23T23:53:22;16.55;;;4.57;;
62289;SDS011;48284;46.828;29.480;2022-08-23T23:55:59;30.50;;;5.35;;
62289;SDS011;48284;46.828;29.480;2022-08-23T23:58:29;23.05;;;3.85;;
